Linwood, Michigan
Current Conditions -  °F | °C
As of 5:53 AM on Saturday 20 Dec 2014 (Local Time) from KMBS Reporting Station
Clear Clear  
Wind Chill: 13°   Ceiling: Unl
Heat Index: 20°   Visibility: 8mi
Dew Point: 16°   Wind: 5mph
Humidity: 85%   Direction: 230°SW
Pressure: 30.31"   Gusts: NA
Location:  43.74°N, 83.96°W
Report Text: KMBS 201053Z 23004KT 8SM CLR M07/M09 A3031 RMK AO2 SLP273 I1000 T10671089
Loading
Personal Weather Stations






























Interactive Weather Map New forecast layout! Learn more

10-Day Weather Forecast

Advertisements
Track Severe Weather on mobile